sensor_id;sensor_type;location;lat;lon;timestamp;P1;durP1;ratioP1;P2;durP2;ratioP2
25049;SDS011;13046;49.814;9.918;2023-04-03T00:01:00;9.65;;;7.07;;
25049;SDS011;13046;49.814;9.918;2023-04-03T00:03:26;7.18;;;6.38;;
25049;SDS011;13046;49.814;9.918;2023-04-03T00:05:52;7.60;;;6.90;;
25049;SDS011;13046;49.814;9.918;2023-04-03T00:08:18;7.82;;;6.88;;
25049;SDS011;13046;49.814;9.918;2023-04-03T00:10:44;9.10;;;7.40;;
25049;SDS011;13046;49.814;9.918;2023-04-03T00:13:11;7.32;;;6.63;;
25049;SDS011;13046;49.814;9.918;2023-04-03T00:15:37;8.23;;;7.45;;
25049;SDS011;13046;49.814;9.918;2023-04-03T00:18:03;10.07;;;7.30;;
25049;SDS011;13046;49.814;9.918;2023-04-03T00:20:29;8.57;;;7.18;;
25049;SDS011;13046;49.814;9.918;2023-04-03T00:22:55;8.50;;;6.88;;
25049;SDS011;13046;49.814;9.918;2023-04-03T00:25:21;8.70;;;6.57;;
25049;SDS011;13046;49.814;9.918;2023-04-03T00:27:48;7.65;;;6.88;;
25049;SDS011;13046;49.814;9.918;2023-04-03T00:30:15;8.35;;;6.85;;
25049;SDS011;13046;49.814;9.918;2023-04-03T00:32:41;8.00;;;7.20;;
25049;SDS011;13046;49.814;9.918;2023-04-03T00:35:07;7.22;;;6.63;;
25049;SDS011;13046;49.814;9.918;2023-04-03T00:37:34;8.55;;;7.65;;
25049;SDS011;13046;49.814;9.918;2023-04-03T00:40:00;8.02;;;6.88;;
25049;SDS011;13046;49.814;9.918;2023-04-03T00:42:26;8.02;;;6.90;;
25049;SDS011;13046;49.814;9.918;2023-04-03T00:47:19;8.15;;;7.10;;
25049;SDS011;13046;49.814;9.918;2023-04-03T00:49:45;7.45;;;6.75;;
25049;SDS011;13046;49.814;9.918;2023-04-03T00:52:12;9.35;;;7.75;;
25049;SDS011;13046;49.814;9.918;2023-04-03T00:54:40;10.35;;;7.18;;
25049;SDS011;13046;49.814;9.918;2023-04-03T00:57:06;15.20;;;7.85;;
25049;SDS011;13046;49.814;9.918;2023-04-03T00:59:34;8.73;;;7.40;;
25049;SDS011;13046;49.814;9.918;2023-04-03T01:02:02;8.50;;;7.50;;
25049;SDS011;13046;49.814;9.918;2023-04-03T01:04:32;8.23;;;7.03;;
25049;SDS011;13046;49.814;9.918;2023-04-03T01:07:00;7.88;;;6.85;;
25049;SDS011;13046;49.814;9.918;2023-04-03T01:09:28;7.80;;;6.65;;
25049;SDS011;13046;49.814;9.918;2023-04-03T01:11:54;7.97;;;7.28;;
25049;SDS011;13046;49.814;9.918;2023-04-03T01:14:38;8.18;;;7.15;;
25049;SDS011;13046;49.814;9.918;2023-04-03T01:17:20;8.48;;;6.93;;
25049;SDS011;13046;49.814;9.918;2023-04-03T01:19:49;10.98;;;7.82;;
25049;SDS011;13046;49.814;9.918;2023-04-03T01:22:22;7.72;;;6.90;;
25049;SDS011;13046;49.814;9.918;2023-04-03T01:24:51;8.07;;;7.32;;
25049;SDS011;13046;49.814;9.918;2023-04-03T01:27:18;9.30;;;7.57;;
25049;SDS011;13046;49.814;9.918;2023-04-03T01:29:44;7.75;;;6.82;;
25049;SDS011;13046;49.814;9.918;2023-04-03T01:32:11;9.30;;;7.03;;
25049;SDS011;13046;49.814;9.918;2023-04-03T01:34:37;11.85;;;8.77;;
25049;SDS011;13046;49.814;9.918;2023-04-03T01:37:03;9.05;;;7.38;;
25049;SDS011;13046;49.814;9.918;2023-04-03T01:39:29;8.05;;;7.25;;
25049;SDS011;13046;49.814;9.918;2023-04-03T01:41:55;8.98;;;6.68;;
25049;SDS011;13046;49.814;9.918;2023-04-03T01:44:28;9.98;;;6.57;;
25049;SDS011;13046;49.814;9.918;2023-04-03T01:46:54;9.07;;;6.53;;
25049;SDS011;13046;49.814;9.918;2023-04-03T01:49:22;10.20;;;7.03;;
25049;SDS011;13046;49.814;9.918;2023-04-03T01:51:48;8.70;;;6.95;;
25049;SDS011;13046;49.814;9.918;2023-04-03T01:54:14;8.68;;;6.90;;
25049;SDS011;13046;49.814;9.918;2023-04-03T01:56:40;9.82;;;6.82;;
25049;SDS011;13046;49.814;9.918;2023-04-03T01:59:07;11.48;;;7.45;;
25049;SDS011;13046;49.814;9.918;2023-04-03T02:01:33;9.43;;;6.90;;
25049;SDS011;13046;49.814;9.918;2023-04-03T02:03:59;9.80;;;6.72;;
25049;SDS011;13046;49.814;9.918;2023-04-03T02:06:25;8.65;;;6.97;;
25049;SDS011;13046;49.814;9.918;2023-04-03T02:08:51;8.57;;;6.53;;
25049;SDS011;13046;49.814;9.918;2023-04-03T02:11:17;9.85;;;7.03;;
25049;SDS011;13046;49.814;9.918;2023-04-03T02:13:43;9.07;;;6.63;;
25049;SDS011;13046;49.814;9.918;2023-04-03T02:16:10;10.45;;;8.18;;
25049;SDS011;13046;49.814;9.918;2023-04-03T02:18:37;7.60;;;6.90;;
25049;SDS011;13046;49.814;9.918;2023-04-03T02:21:04;7.00;;;6.30;;
25049;SDS011;13046;49.814;9.918;2023-04-03T02:23:30;7.18;;;6.30;;
25049;SDS011;13046;49.814;9.918;2023-04-03T02:26:04;10.50;;;6.68;;
25049;SDS011;13046;49.814;9.918;2023-04-03T02:28:30;8.50;;;7.60;;
25049;SDS011;13046;49.814;9.918;2023-04-03T02:30:56;10.05;;;7.07;;
25049;SDS011;13046;49.814;9.918;2023-04-03T02:33:22;7.85;;;6.22;;
25049;SDS011;13046;49.814;9.918;2023-04-03T02:35:53;11.30;;;7.82;;
25049;SDS011;13046;49.814;9.918;2023-04-03T02:38:20;8.27;;;6.57;;
25049;SDS011;13046;49.814;9.918;2023-04-03T02:40:47;8.23;;;6.93;;
25049;SDS011;13046;49.814;9.918;2023-04-03T02:43:13;8.48;;;7.20;;
25049;SDS011;13046;49.814;9.918;2023-04-03T02:45:39;9.30;;;7.28;;
25049;SDS011;13046;49.814;9.918;2023-04-03T02:48:06;8.15;;;7.35;;
25049;SDS011;13046;49.814;9.918;2023-04-03T02:50:32;10.63;;;6.97;;
25049;SDS011;13046;49.814;9.918;2023-04-03T02:52:58;11.13;;;7.18;;
25049;SDS011;13046;49.814;9.918;2023-04-03T02:55:24;12.82;;;7.20;;
25049;SDS011;13046;49.814;9.918;2023-04-03T02:57:53;12.15;;;7.95;;
25049;SDS011;13046;49.814;9.918;2023-04-03T03:00:20;9.82;;;6.60;;
25049;SDS011;13046;49.814;9.918;2023-04-03T03:02:48;8.57;;;6.40;;
25049;SDS011;13046;49.814;9.918;2023-04-03T03:05:14;8.57;;;6.97;;
25049;SDS011;13046;49.814;9.918;2023-04-03T03:07:40;12.55;;;7.68;;
25049;SDS011;13046;49.814;9.918;2023-04-03T03:10:06;9.85;;;7.45;;
25049;SDS011;13046;49.814;9.918;2023-04-03T03:12:33;7.45;;;6.72;;
25049;SDS011;13046;49.814;9.918;2023-04-03T03:14:59;8.35;;;6.55;;
25049;SDS011;13046;49.814;9.918;2023-04-03T03:17:25;12.98;;;7.38;;
25049;SDS011;13046;49.814;9.918;2023-04-03T03:19:51;11.63;;;8.20;;
25049;SDS011;13046;49.814;9.918;2023-04-03T03:22:17;11.02;;;8.95;;
25049;SDS011;13046;49.814;9.918;2023-04-03T03:24:43;10.32;;;8.43;;
25049;SDS011;13046;49.814;9.918;2023-04-03T03:27:10;9.68;;;8.75;;
25049;SDS011;13046;49.814;9.918;2023-04-03T03:29:37;10.35;;;9.38;;
25049;SDS011;13046;49.814;9.918;2023-04-03T03:32:04;10.60;;;9.43;;
25049;SDS011;13046;49.814;9.918;2023-04-03T03:34:30;11.05;;;8.57;;
25049;SDS011;13046;49.814;9.918;2023-04-03T03:36:58;13.75;;;9.50;;
25049;SDS011;13046;49.814;9.918;2023-04-03T03:39:24;9.07;;;8.20;;
25049;SDS011;13046;49.814;9.918;2023-04-03T03:41:50;9.38;;;8.57;;
25049;SDS011;13046;49.814;9.918;2023-04-03T03:44:19;11.18;;;7.07;;
25049;SDS011;13046;49.814;9.918;2023-04-03T03:46:45;9.20;;;7.20;;
25049;SDS011;13046;49.814;9.918;2023-04-03T03:49:11;10.85;;;7.75;;
25049;SDS011;13046;49.814;9.918;2023-04-03T03:51:38;13.18;;;7.63;;
25049;SDS011;13046;49.814;9.918;2023-04-03T03:54:05;8.20;;;7.43;;
25049;SDS011;13046;49.814;9.918;2023-04-03T03:56:31;12.70;;;7.40;;
25049;SDS011;13046;49.814;9.918;2023-04-03T03:58:58;10.35;;;7.55;;
25049;SDS011;13046;49.814;9.918;2023-04-03T04:01:24;10.50;;;7.30;;
25049;SDS011;13046;49.814;9.918;2023-04-03T04:03:50;9.43;;;7.68;;
25049;SDS011;13046;49.814;9.918;2023-04-03T04:06:21;8.88;;;7.90;;
25049;SDS011;13046;49.814;9.918;2023-04-03T04:08:47;8.88;;;7.97;;
25049;SDS011;13046;49.814;9.918;2023-04-03T04:11:14;10.30;;;8.32;;
25049;SDS011;13046;49.814;9.918;2023-04-03T04:13:41;12.55;;;8.90;;
25049;SDS011;13046;49.814;9.918;2023-04-03T04:16:10;10.48;;;8.70;;
25049;SDS011;13046;49.814;9.918;2023-04-03T04:18:37;9.55;;;7.72;;
25049;SDS011;13046;49.814;9.918;2023-04-03T04:21:03;8.38;;;7.38;;
25049;SDS011;13046;49.814;9.918;2023-04-03T04:23:29;12.40;;;8.00;;
25049;SDS011;13046;49.814;9.918;2023-04-03T04:25:57;9.43;;;8.27;;
25049;SDS011;13046;49.814;9.918;2023-04-03T04:28:27;10.57;;;8.55;;
25049;SDS011;13046;49.814;9.918;2023-04-03T04:30:56;10.43;;;9.20;;
25049;SDS011;13046;49.814;9.918;2023-04-03T04:33:24;9.13;;;8.32;;
25049;SDS011;13046;49.814;9.918;2023-04-03T04:35:52;10.63;;;8.50;;
25049;SDS011;13046;49.814;9.918;2023-04-03T04:38:19;10.35;;;8.95;;
25049;SDS011;13046;49.814;9.918;2023-04-03T04:40:47;8.70;;;7.75;;
25049;SDS011;13046;49.814;9.918;2023-04-03T04:43:13;11.98;;;8.20;;
25049;SDS011;13046;49.814;9.918;2023-04-03T04:45:41;9.07;;;8.18;;
25049;SDS011;13046;49.814;9.918;2023-04-03T04:48:08;10.38;;;9.15;;
25049;SDS011;13046;49.814;9.918;2023-04-03T04:50:35;11.55;;;10.38;;
25049;SDS011;13046;49.814;9.918;2023-04-03T04:53:01;9.52;;;8.63;;
25049;SDS011;13046;49.814;9.918;2023-04-03T04:55:27;9.23;;;8.40;;
25049;SDS011;13046;49.814;9.918;2023-04-03T04:57:54;12.18;;;10.23;;
25049;SDS011;13046;49.814;9.918;2023-04-03T05:00:21;11.20;;;9.30;;
25049;SDS011;13046;49.814;9.918;2023-04-03T05:02:47;9.52;;;8.60;;
25049;SDS011;13046;49.814;9.918;2023-04-03T05:05:14;9.50;;;8.45;;
25049;SDS011;13046;49.814;9.918;2023-04-03T05:07:40;9.93;;;8.27;;
25049;SDS011;13046;49.814;9.918;2023-04-03T05:10:07;8.43;;;7.60;;
25049;SDS011;13046;49.814;9.918;2023-04-03T05:12:33;9.40;;;8.00;;
25049;SDS011;13046;49.814;9.918;2023-04-03T05:15:02;8.45;;;7.65;;
25049;SDS011;13046;49.814;9.918;2023-04-03T05:17:30;13.02;;;8.00;;
25049;SDS011;13046;49.814;9.918;2023-04-03T05:19:57;13.27;;;9.45;;
25049;SDS011;13046;49.814;9.918;2023-04-03T05:22:25;14.15;;;8.68;;
25049;SDS011;13046;49.814;9.918;2023-04-03T05:24:54;9.52;;;8.45;;
25049;SDS011;13046;49.814;9.918;2023-04-03T05:27:21;9.68;;;8.40;;
25049;SDS011;13046;49.814;9.918;2023-04-03T05:29:52;12.45;;;8.25;;
25049;SDS011;13046;49.814;9.918;2023-04-03T05:32:20;11.40;;;9.13;;
25049;SDS011;13046;49.814;9.918;2023-04-03T05:34:51;10.60;;;8.60;;
25049;SDS011;13046;49.814;9.918;2023-04-03T05:37:18;9.75;;;8.60;;
25049;SDS011;13046;49.814;9.918;2023-04-03T05:39:45;9.65;;;8.63;;
25049;SDS011;13046;49.814;9.918;2023-04-03T05:42:11;11.82;;;9.10;;
25049;SDS011;13046;49.814;9.918;2023-04-03T05:44:38;12.73;;;8.95;;
25049;SDS011;13046;49.814;9.918;2023-04-03T05:47:05;12.80;;;11.25;;
25049;SDS011;13046;49.814;9.918;2023-04-03T05:49:32;10.25;;;8.88;;
25049;SDS011;13046;49.814;9.918;2023-04-03T05:51:58;10.65;;;9.63;;
25049;SDS011;13046;49.814;9.918;2023-04-03T05:54:28;10.68;;;8.20;;
25049;SDS011;13046;49.814;9.918;2023-04-03T05:57:02;10.32;;;8.75;;
25049;SDS011;13046;49.814;9.918;2023-04-03T05:59:28;9.60;;;8.60;;
25049;SDS011;13046;49.814;9.918;2023-04-03T06:01:57;12.38;;;8.98;;
25049;SDS011;13046;49.814;9.918;2023-04-03T06:04:23;9.52;;;8.70;;
25049;SDS011;13046;49.814;9.918;2023-04-03T06:06:50;10.02;;;8.00;;
25049;SDS011;13046;49.814;9.918;2023-04-03T06:09:19;9.38;;;8.27;;
25049;SDS011;13046;49.814;9.918;2023-04-03T06:11:45;10.93;;;8.65;;
25049;SDS011;13046;49.814;9.918;2023-04-03T06:14:12;15.32;;;9.10;;
25049;SDS011;13046;49.814;9.918;2023-04-03T06:16:38;12.82;;;8.57;;
25049;SDS011;13046;49.814;9.918;2023-04-03T06:19:07;9.73;;;8.60;;
25049;SDS011;13046;49.814;9.918;2023-04-03T06:21:33;11.73;;;9.30;;
25049;SDS011;13046;49.814;9.918;2023-04-03T06:24:02;12.07;;;8.43;;
25049;SDS011;13046;49.814;9.918;2023-04-03T06:26:28;10.85;;;7.80;;
25049;SDS011;13046;49.814;9.918;2023-04-03T06:28:54;14.57;;;8.30;;
25049;SDS011;13046;49.814;9.918;2023-04-03T06:31:21;9.18;;;8.27;;
25049;SDS011;13046;49.814;9.918;2023-04-03T06:33:47;9.50;;;8.50;;
25049;SDS011;13046;49.814;9.918;2023-04-03T06:36:13;11.02;;;7.72;;
25049;SDS011;13046;49.814;9.918;2023-04-03T06:38:40;11.95;;;8.20;;
25049;SDS011;13046;49.814;9.918;2023-04-03T06:41:06;9.25;;;8.45;;
25049;SDS011;13046;49.814;9.918;2023-04-03T06:43:32;9.30;;;8.50;;
25049;SDS011;13046;49.814;9.918;2023-04-03T06:45:58;8.63;;;7.82;;
25049;SDS011;13046;49.814;9.918;2023-04-03T06:48:24;8.93;;;8.00;;
25049;SDS011;13046;49.814;9.918;2023-04-03T06:50:50;8.98;;;8.05;;
25049;SDS011;13046;49.814;9.918;2023-04-03T06:53:16;12.27;;;9.20;;
25049;SDS011;13046;49.814;9.918;2023-04-03T06:55:43;11.57;;;8.30;;
25049;SDS011;13046;49.814;9.918;2023-04-03T06:58:09;11.60;;;8.07;;
25049;SDS011;13046;49.814;9.918;2023-04-03T07:00:35;8.93;;;7.93;;
25049;SDS011;13046;49.814;9.918;2023-04-03T07:03:01;10.07;;;8.70;;
25049;SDS011;13046;49.814;9.918;2023-04-03T07:05:27;9.05;;;8.20;;
25049;SDS011;13046;49.814;9.918;2023-04-03T07:07:53;10.38;;;8.07;;
25049;SDS011;13046;49.814;9.918;2023-04-03T07:10:19;9.85;;;8.57;;
25049;SDS011;13046;49.814;9.918;2023-04-03T07:12:45;9.95;;;7.75;;
25049;SDS011;13046;49.814;9.918;2023-04-03T07:15:11;9.50;;;8.40;;
25049;SDS011;13046;49.814;9.918;2023-04-03T07:17:39;8.95;;;7.95;;
25049;SDS011;13046;49.814;9.918;2023-04-03T07:20:05;13.50;;;8.20;;
25049;SDS011;13046;49.814;9.918;2023-04-03T07:22:32;7.90;;;6.70;;
25049;SDS011;13046;49.814;9.918;2023-04-03T07:24:58;11.13;;;8.30;;
25049;SDS011;13046;49.814;9.918;2023-04-03T07:27:25;9.50;;;7.10;;
25049;SDS011;13046;49.814;9.918;2023-04-03T07:29:51;11.05;;;7.95;;
25049;SDS011;13046;49.814;9.918;2023-04-03T07:32:17;15.43;;;8.75;;
25049;SDS011;13046;49.814;9.918;2023-04-03T07:34:43;9.93;;;8.23;;
25049;SDS011;13046;49.814;9.918;2023-04-03T07:37:10;11.07;;;7.05;;
25049;SDS011;13046;49.814;9.918;2023-04-03T07:39:36;8.07;;;7.22;;
25049;SDS011;13046;49.814;9.918;2023-04-03T07:42:02;9.25;;;7.25;;
25049;SDS011;13046;49.814;9.918;2023-04-03T07:44:28;11.63;;;7.30;;
25049;SDS011;13046;49.814;9.918;2023-04-03T07:46:55;12.93;;;7.78;;
25049;SDS011;13046;49.814;9.918;2023-04-03T07:49:21;9.95;;;7.60;;
25049;SDS011;13046;49.814;9.918;2023-04-03T07:51:51;9.93;;;7.20;;
25049;SDS011;13046;49.814;9.918;2023-04-03T07:54:18;8.98;;;6.18;;
25049;SDS011;13046;49.814;9.918;2023-04-03T07:56:44;8.40;;;7.13;;
25049;SDS011;13046;49.814;9.918;2023-04-03T07:59:10;9.18;;;6.72;;
25049;SDS011;13046;49.814;9.918;2023-04-03T08:01:36;7.63;;;6.35;;
25049;SDS011;13046;49.814;9.918;2023-04-03T08:04:03;8.55;;;6.05;;
25049;SDS011;13046;49.814;9.918;2023-04-03T08:06:30;7.88;;;6.20;;
25049;SDS011;13046;49.814;9.918;2023-04-03T08:08:58;7.97;;;6.65;;
25049;SDS011;13046;49.814;9.918;2023-04-03T08:11:24;7.00;;;6.35;;
25049;SDS011;13046;49.814;9.918;2023-04-03T08:13:51;8.32;;;6.10;;
25049;SDS011;13046;49.814;9.918;2023-04-03T08:16:18;9.25;;;6.35;;
25049;SDS011;13046;49.814;9.918;2023-04-03T08:18:46;9.80;;;5.70;;
25049;SDS011;13046;49.814;9.918;2023-04-03T08:21:12;7.07;;;6.18;;
25049;SDS011;13046;49.814;9.918;2023-04-03T08:23:38;6.03;;;5.45;;
25049;SDS011;13046;49.814;9.918;2023-04-03T08:26:09;8.32;;;6.30;;
25049;SDS011;13046;49.814;9.918;2023-04-03T08:28:36;6.75;;;5.78;;
25049;SDS011;13046;49.814;9.918;2023-04-03T08:31:03;6.28;;;5.70;;
25049;SDS011;13046;49.814;9.918;2023-04-03T08:33:31;6.20;;;5.60;;
25049;SDS011;13046;49.814;9.918;2023-04-03T08:35:57;8.07;;;6.38;;
25049;SDS011;13046;49.814;9.918;2023-04-03T08:38:23;6.97;;;6.05;;
25049;SDS011;13046;49.814;9.918;2023-04-03T08:41:13;8.27;;;6.72;;
25049;SDS011;13046;49.814;9.918;2023-04-03T08:43:56;10.00;;;6.07;;
25049;SDS011;13046;49.814;9.918;2023-04-03T08:46:23;9.48;;;6.32;;
25049;SDS011;13046;49.814;9.918;2023-04-03T08:48:51;8.55;;;6.85;;
25049;SDS011;13046;49.814;9.918;2023-04-03T08:51:19;6.22;;;5.60;;
25049;SDS011;13046;49.814;9.918;2023-04-03T08:53:49;5.90;;;5.32;;
25049;SDS011;13046;49.814;9.918;2023-04-03T08:56:19;7.07;;;5.30;;
25049;SDS011;13046;49.814;9.918;2023-04-03T08:58:49;5.18;;;4.70;;
25049;SDS011;13046;49.814;9.918;2023-04-03T09:01:33;8.35;;;5.10;;
25049;SDS011;13046;49.814;9.918;2023-04-03T09:04:00;9.27;;;5.68;;
25049;SDS011;13046;49.814;9.918;2023-04-03T09:06:27;6.68;;;5.55;;
25049;SDS011;13046;49.814;9.918;2023-04-03T09:09:04;5.30;;;4.80;;
25049;SDS011;13046;49.814;9.918;2023-04-03T09:14:00;6.70;;;4.90;;
25049;SDS011;13046;49.814;9.918;2023-04-03T09:16:32;7.47;;;5.65;;
25049;SDS011;13046;49.814;9.918;2023-04-03T09:21:52;5.20;;;4.70;;
25049;SDS011;13046;49.814;9.918;2023-04-03T09:24:18;5.22;;;4.20;;
25049;SDS011;13046;49.814;9.918;2023-04-03T09:26:56;5.80;;;4.32;;
25049;SDS011;13046;49.814;9.918;2023-04-03T09:29:24;7.63;;;4.57;;
25049;SDS011;13046;49.814;9.918;2023-04-03T09:31:52;9.32;;;4.85;;
25049;SDS011;13046;49.814;9.918;2023-04-03T09:34:30;7.70;;;4.55;;
25049;SDS011;13046;49.814;9.918;2023-04-03T09:37:00;10.15;;;5.00;;
25049;SDS011;13046;49.814;9.918;2023-04-03T09:39:31;8.43;;;4.47;;
25049;SDS011;13046;49.814;9.918;2023-04-03T09:44:33;6.18;;;4.55;;
25049;SDS011;13046;49.814;9.918;2023-04-03T09:47:00;4.97;;;4.22;;
25049;SDS011;13046;49.814;9.918;2023-04-03T09:49:42;6.15;;;4.18;;
25049;SDS011;13046;49.814;9.918;2023-04-03T09:52:18;10.43;;;4.80;;
25049;SDS011;13046;49.814;9.918;2023-04-03T09:54:45;4.93;;;3.85;;
25049;SDS011;13046;49.814;9.918;2023-04-03T09:57:11;6.30;;;4.57;;
25049;SDS011;13046;49.814;9.918;2023-04-03T09:59:43;6.00;;;3.85;;
25049;SDS011;13046;49.814;9.918;2023-04-03T10:04:38;8.15;;;4.00;;
25049;SDS011;13046;49.814;9.918;2023-04-03T10:07:05;5.80;;;3.90;;
25049;SDS011;13046;49.814;9.918;2023-04-03T10:09:55;8.50;;;5.25;;
25049;SDS011;13046;49.814;9.918;2023-04-03T10:12:22;7.60;;;4.03;;
25049;SDS011;13046;49.814;9.918;2023-04-03T10:14:58;4.68;;;3.75;;
25049;SDS011;13046;49.814;9.918;2023-04-03T10:17:45;6.88;;;4.18;;
25049;SDS011;13046;49.814;9.918;2023-04-03T10:33:12;6.43;;;4.03;;
25049;SDS011;13046;49.814;9.918;2023-04-03T10:38:48;5.00;;;3.88;;
25049;SDS011;13046;49.814;9.918;2023-04-03T10:41:19;5.13;;;4.68;;
25049;SDS011;13046;49.814;9.918;2023-04-03T10:43:53;4.05;;;3.30;;
25049;SDS011;13046;49.814;9.918;2023-04-03T10:58:46;3.80;;;3.38;;
25049;SDS011;13046;49.814;9.918;2023-04-03T11:01:16;5.35;;;3.47;;
25049;SDS011;13046;49.814;9.918;2023-04-03T11:03:45;6.18;;;4.20;;
25049;SDS011;13046;49.814;9.918;2023-04-03T11:06:13;5.90;;;3.30;;
25049;SDS011;13046;49.814;9.918;2023-04-03T11:08:45;4.53;;;3.80;;
25049;SDS011;13046;49.814;9.918;2023-04-03T11:11:13;3.53;;;3.00;;
25049;SDS011;13046;49.814;9.918;2023-04-03T11:13:43;6.15;;;3.00;;
25049;SDS011;13046;49.814;9.918;2023-04-03T11:16:14;3.35;;;2.95;;
25049;SDS011;13046;49.814;9.918;2023-04-03T11:18:49;5.95;;;3.20;;
25049;SDS011;13046;49.814;9.918;2023-04-03T11:21:28;4.15;;;3.40;;
25049;SDS011;13046;49.814;9.918;2023-04-03T11:23:56;3.75;;;2.90;;
25049;SDS011;13046;49.814;9.918;2023-04-03T11:26:25;4.03;;;3.28;;
25049;SDS011;13046;49.814;9.918;2023-04-03T11:28:56;6.03;;;2.90;;
25049;SDS011;13046;49.814;9.918;2023-04-03T11:31:27;4.90;;;3.13;;
25049;SDS011;13046;49.814;9.918;2023-04-03T11:36:24;6.38;;;3.28;;
25049;SDS011;13046;49.814;9.918;2023-04-03T11:38:53;6.82;;;3.35;;
25049;SDS011;13046;49.814;9.918;2023-04-03T11:41:27;4.05;;;2.67;;
25049;SDS011;13046;49.814;9.918;2023-04-03T11:46:53;2.97;;;2.78;;
25049;SDS011;13046;49.814;9.918;2023-04-03T11:52:07;2.83;;;2.22;;
25049;SDS011;13046;49.814;9.918;2023-04-03T11:54:42;3.45;;;2.42;;
25049;SDS011;13046;49.814;9.918;2023-04-03T12:00:45;6.38;;;3.42;;
25049;SDS011;13046;49.814;9.918;2023-04-03T12:02:51;4.70;;;3.28;;
25049;SDS011;13046;49.814;9.918;2023-04-03T12:10:38;3.05;;;2.83;;
25049;SDS011;13046;49.814;9.918;2023-04-03T12:13:13;3.85;;;2.90;;
25049;SDS011;13046;49.814;9.918;2023-04-03T12:20:56;8.25;;;3.00;;
25049;SDS011;13046;49.814;9.918;2023-04-03T12:25:50;4.68;;;2.45;;
25049;SDS011;13046;49.814;9.918;2023-04-03T12:28:16;5.43;;;4.15;;
25049;SDS011;13046;49.814;9.918;2023-04-03T12:30:42;3.47;;;2.42;;
25049;SDS011;13046;49.814;9.918;2023-04-03T12:33:15;4.50;;;2.60;;
25049;SDS011;13046;49.814;9.918;2023-04-03T12:46:07;4.60;;;3.08;;
25049;SDS011;13046;49.814;9.918;2023-04-03T12:51:20;5.22;;;2.95;;
25049;SDS011;13046;49.814;9.918;2023-04-03T12:53:47;4.20;;;3.05;;
25049;SDS011;13046;49.814;9.918;2023-04-03T12:56:18;4.05;;;2.65;;
25049;SDS011;13046;49.814;9.918;2023-04-03T12:58:45;13.88;;;8.55;;
25049;SDS011;13046;49.814;9.918;2023-04-03T13:03:38;6.45;;;5.38;;
25049;SDS011;13046;49.814;9.918;2023-04-03T13:06:05;7.80;;;3.53;;
25049;SDS011;13046;49.814;9.918;2023-04-03T13:08:31;3.92;;;2.58;;
25049;SDS011;13046;49.814;9.918;2023-04-03T13:11:05;3.70;;;3.13;;
25049;SDS011;13046;49.814;9.918;2023-04-03T13:13:35;4.90;;;2.97;;
25049;SDS011;13046;49.814;9.918;2023-04-03T13:16:07;7.10;;;3.25;;
25049;SDS011;13046;49.814;9.918;2023-04-03T13:21:08;4.32;;;2.85;;
25049;SDS011;13046;49.814;9.918;2023-04-03T13:23:38;3.28;;;2.83;;
25049;SDS011;13046;49.814;9.918;2023-04-03T13:26:05;3.13;;;2.80;;
25049;SDS011;13046;49.814;9.918;2023-04-03T13:28:32;3.67;;;2.67;;
25049;SDS011;13046;49.814;9.918;2023-04-03T13:31:01;2.85;;;2.53;;
25049;SDS011;13046;49.814;9.918;2023-04-03T13:33:31;3.85;;;2.45;;
25049;SDS011;13046;49.814;9.918;2023-04-03T13:36:04;4.38;;;2.72;;
25049;SDS011;13046;49.814;9.918;2023-04-03T13:38:33;4.30;;;2.58;;
25049;SDS011;13046;49.814;9.918;2023-04-03T13:41:03;3.85;;;2.92;;
25049;SDS011;13046;49.814;9.918;2023-04-03T13:43:47;5.10;;;2.97;;
25049;SDS011;13046;49.814;9.918;2023-04-03T13:48:43;2.65;;;2.38;;
25049;SDS011;13046;49.814;9.918;2023-04-03T13:53:48;3.70;;;2.80;;
25049;SDS011;13046;49.814;9.918;2023-04-03T13:56:21;3.97;;;2.75;;
25049;SDS011;13046;49.814;9.918;2023-04-03T13:58:52;4.78;;;3.55;;
25049;SDS011;13046;49.814;9.918;2023-04-03T14:01:44;7.57;;;3.95;;
25049;SDS011;13046;49.814;9.918;2023-04-03T14:04:46;3.58;;;2.90;;
25049;SDS011;13046;49.814;9.918;2023-04-03T14:07:14;5.65;;;2.45;;
25049;SDS011;13046;49.814;9.918;2023-04-03T14:09:42;3.20;;;2.17;;
25049;SDS011;13046;49.814;9.918;2023-04-03T14:12:12;3.28;;;2.92;;
25049;SDS011;13046;49.814;9.918;2023-04-03T14:14:39;4.63;;;2.50;;
25049;SDS011;13046;49.814;9.918;2023-04-03T14:17:22;2.92;;;2.50;;
25049;SDS011;13046;49.814;9.918;2023-04-03T14:19:49;2.92;;;2.58;;
25049;SDS011;13046;49.814;9.918;2023-04-03T14:22:18;2.35;;;1.98;;
25049;SDS011;13046;49.814;9.918;2023-04-03T14:24:47;7.07;;;4.53;;
25049;SDS011;13046;49.814;9.918;2023-04-03T14:27:19;8.68;;;6.47;;
25049;SDS011;13046;49.814;9.918;2023-04-03T14:29:48;3.58;;;2.65;;
25049;SDS011;13046;49.814;9.918;2023-04-03T14:32:16;7.50;;;3.85;;
25049;SDS011;13046;49.814;9.918;2023-04-03T14:34:42;3.80;;;3.10;;
25049;SDS011;13046;49.814;9.918;2023-04-03T14:37:09;4.00;;;2.70;;
25049;SDS011;13046;49.814;9.918;2023-04-03T14:39:41;4.53;;;2.90;;
25049;SDS011;13046;49.814;9.918;2023-04-03T14:42:27;3.08;;;2.78;;
25049;SDS011;13046;49.814;9.918;2023-04-03T14:44:54;3.45;;;2.20;;
25049;SDS011;13046;49.814;9.918;2023-04-03T14:47:21;3.75;;;3.10;;
25049;SDS011;13046;49.814;9.918;2023-04-03T14:49:50;3.58;;;2.67;;
25049;SDS011;13046;49.814;9.918;2023-04-03T14:52:24;5.35;;;3.25;;
25049;SDS011;13046;49.814;9.918;2023-04-03T14:54:50;5.07;;;2.80;;
25049;SDS011;13046;49.814;9.918;2023-04-03T14:57:17;3.13;;;2.47;;
25049;SDS011;13046;49.814;9.918;2023-04-03T14:59:43;3.13;;;2.92;;
25049;SDS011;13046;49.814;9.918;2023-04-03T15:02:30;6.35;;;2.85;;
25049;SDS011;13046;49.814;9.918;2023-04-03T15:04:58;3.38;;;3.08;;
25049;SDS011;13046;49.814;9.918;2023-04-03T15:07:25;2.78;;;2.42;;
25049;SDS011;13046;49.814;9.918;2023-04-03T15:09:52;2.63;;;2.42;;
25049;SDS011;13046;49.814;9.918;2023-04-03T15:12:18;2.95;;;2.40;;
25049;SDS011;13046;49.814;9.918;2023-04-03T15:14:43;3.92;;;2.95;;
25049;SDS011;13046;49.814;9.918;2023-04-03T15:17:16;3.90;;;3.05;;
25049;SDS011;13046;49.814;9.918;2023-04-03T15:19:45;3.33;;;2.17;;
25049;SDS011;13046;49.814;9.918;2023-04-03T15:22:14;4.80;;;3.08;;
25049;SDS011;13046;49.814;9.918;2023-04-03T15:24:42;3.75;;;2.53;;
25049;SDS011;13046;49.814;9.918;2023-04-03T15:27:09;3.33;;;2.15;;
25049;SDS011;13046;49.814;9.918;2023-04-03T15:29:37;2.65;;;1.98;;
25049;SDS011;13046;49.814;9.918;2023-04-03T15:32:03;3.17;;;2.15;;
25049;SDS011;13046;49.814;9.918;2023-04-03T15:34:29;5.32;;;2.30;;
25049;SDS011;13046;49.814;9.918;2023-04-03T15:36:56;4.90;;;3.25;;
25049;SDS011;13046;49.814;9.918;2023-04-03T15:39:22;2.85;;;2.50;;
25049;SDS011;13046;49.814;9.918;2023-04-03T15:41:48;2.80;;;2.30;;
25049;SDS011;13046;49.814;9.918;2023-04-03T15:44:14;4.05;;;2.40;;
25049;SDS011;13046;49.814;9.918;2023-04-03T15:46:42;5.25;;;2.40;;
25049;SDS011;13046;49.814;9.918;2023-04-03T15:49:08;4.43;;;2.13;;
25049;SDS011;13046;49.814;9.918;2023-04-03T15:51:35;2.47;;;1.90;;
25049;SDS011;13046;49.814;9.918;2023-04-03T15:54:01;5.05;;;2.45;;
25049;SDS011;13046;49.814;9.918;2023-04-03T15:56:27;7.55;;;2.88;;
25049;SDS011;13046;49.814;9.918;2023-04-03T15:58:53;3.20;;;2.40;;
25049;SDS011;13046;49.814;9.918;2023-04-03T16:01:19;3.55;;;2.70;;
25049;SDS011;13046;49.814;9.918;2023-04-03T16:03:45;3.75;;;2.47;;
25049;SDS011;13046;49.814;9.918;2023-04-03T16:06:12;8.13;;;6.20;;
25049;SDS011;13046;49.814;9.918;2023-04-03T16:08:43;7.00;;;2.75;;
25049;SDS011;13046;49.814;9.918;2023-04-03T16:11:09;4.50;;;2.38;;
25049;SDS011;13046;49.814;9.918;2023-04-03T16:13:35;6.00;;;3.00;;
25049;SDS011;13046;49.814;9.918;2023-04-03T16:16:01;7.97;;;4.40;;
25049;SDS011;13046;49.814;9.918;2023-04-03T16:18:27;3.70;;;2.70;;
25049;SDS011;13046;49.814;9.918;2023-04-03T16:20:53;3.17;;;2.30;;